createdAt,value
2018-08-09T00:01:50.073Z,75.80
2018-08-09T00:06:53.818Z,75.40
2018-08-09T00:11:57.563Z,75.80
2018-08-09T00:17:01.306Z,75.80
2018-08-09T00:22:05.320Z,75.30
2018-08-09T00:27:09.140Z,75.20
2018-08-09T00:32:12.906Z,75.30
2018-08-09T00:37:16.619Z,75.40
2018-08-09T00:42:20.368Z,75.70
2018-08-09T00:47:24.223Z,76.10
2018-08-09T00:52:27.990Z,76.50
2018-08-09T00:57:31.886Z,76.50
2018-08-09T01:02:35.700Z,77.00
2018-08-09T01:07:39.473Z,77.10
2018-08-09T01:12:43.235Z,77.40
2018-08-09T01:17:47.017Z,77.50
2018-08-09T01:22:50.883Z,77.70
2018-08-09T01:27:54.728Z,77.70
2018-08-09T01:32:58.502Z,78.00
2018-08-09T01:38:02.199Z,78.10
2018-08-09T01:43:17.168Z,78.10
2018-08-09T01:48:20.892Z,77.60
2018-08-09T01:53:24.677Z,77.50
2018-08-09T01:58:28.501Z,77.50
2018-08-09T02:03:32.599Z,77.80
2018-08-09T02:08:36.373Z,78.10
2018-08-09T02:13:40.309Z,77.90
2018-08-09T02:18:44.087Z,77.30
2018-08-09T02:23:47.863Z,77.80
2018-08-09T02:28:51.575Z,78.00
2018-08-09T02:33:55.321Z,78.50
2018-08-09T02:38:59.073Z,77.90
2018-08-09T02:44:02.875Z,77.60
2018-08-09T02:49:06.577Z,77.50
2018-08-09T02:54:10.484Z,77.40
2018-08-09T02:59:14.291Z,77.80
2018-08-09T03:04:18.034Z,78.20
2018-08-09T03:09:21.861Z,79.00
2018-08-09T03:14:25.666Z,79.30
2018-08-09T03:19:29.368Z,78.80
2018-08-09T03:24:33.183Z,80.00
2018-08-09T03:29:36.924Z,80.40
2018-08-09T03:34:40.662Z,80.00
2018-08-09T03:39:44.352Z,80.80
2018-08-09T03:44:48.192Z,80.80
2018-08-09T03:49:51.962Z,81.20
2018-08-09T03:54:55.745Z,81.90
2018-08-09T03:59:59.386Z,82.30
2018-08-09T04:05:03.139Z,82.70
2018-08-09T04:10:07.627Z,83.00
2018-08-09T04:15:12.150Z,83.60
2018-08-09T04:20:15.812Z,84.20
2018-08-09T04:25:19.533Z,83.90
2018-08-09T04:30:23.244Z,84.20
2018-08-09T04:35:26.923Z,84.40
2018-08-09T04:40:30.867Z,84.60
2018-08-09T04:45:34.491Z,84.70
2018-08-09T04:50:38.109Z,84.70
2018-08-09T04:55:41.684Z,84.80
2018-08-09T05:00:45.298Z,84.60
2018-08-09T05:05:48.860Z,84.40
2018-08-09T05:10:52.416Z,84.70
2018-08-09T05:15:56.088Z,84.70
2018-08-09T05:20:59.679Z,84.20
2018-08-09T05:26:03.424Z,84.60
2018-08-09T05:31:07.007Z,84.30
2018-08-09T05:36:10.622Z,84.70
2018-08-09T05:41:14.344Z,83.40
2018-08-09T05:46:17.992Z,83.90
2018-08-09T05:51:21.606Z,83.00
2018-08-09T05:56:25.305Z,82.30
2018-08-09T06:01:28.963Z,81.40
2018-08-09T06:06:32.552Z,81.10
2018-08-09T06:11:36.141Z,80.50
2018-08-09T06:16:40.220Z,79.20
2018-08-09T06:21:43.827Z,78.30
2018-08-09T06:26:47.687Z,77.80
2018-08-09T06:31:51.482Z,77.10
2018-08-09T06:36:55.369Z,76.70
2018-08-09T06:41:59.048Z,76.90
2018-08-09T06:47:02.727Z,76.40
2018-08-09T06:52:07.604Z,75.30
2018-08-09T06:57:11.234Z,74.30
2018-08-09T07:02:14.887Z,73.00
2018-08-09T07:07:19.410Z,72.00
2018-08-09T07:12:23.417Z,71.20
2018-08-09T07:17:27.068Z,69.30
2018-08-09T07:22:30.685Z,67.70
2018-08-09T07:27:34.329Z,66.80
2018-08-09T07:32:38.155Z,66.40
2018-08-09T07:37:41.846Z,66.10
2018-08-09T07:42:45.643Z,67.90
2018-08-09T07:47:49.320Z,70.60
2018-08-09T07:52:53.219Z,71.60
2018-08-09T07:57:56.884Z,84.80
2018-08-09T08:03:00.549Z,91.00
2018-08-09T08:08:04.256Z,93.10
2018-08-09T08:13:08.012Z,90.10
2018-08-09T08:18:11.609Z,98.10
2018-08-09T08:23:15.372Z,99.90
2018-08-09T08:28:18.944Z,99.90
2018-08-09T08:33:22.675Z,99.90
2018-08-09T08:38:26.394Z,99.90
2018-08-09T08:43:30.113Z,99.90
2018-08-09T08:48:33.839Z,99.90
2018-08-09T08:53:37.541Z,99.90
2018-08-09T08:58:55.424Z,99.90
2018-08-09T09:03:59.200Z,94.80
2018-08-09T09:09:03.521Z,92.10
2018-08-09T09:14:07.382Z,90.50
2018-08-09T09:19:11.287Z,88.40
2018-08-09T09:24:15.070Z,87.50
2018-08-09T09:29:18.943Z,82.50
2018-08-09T09:34:22.961Z,77.80
2018-08-09T09:39:26.692Z,77.80
2018-08-09T09:44:30.496Z,74.30
2018-08-09T09:49:34.229Z,71.70
2018-08-09T09:54:38.080Z,71.70
2018-08-09T09:59:41.877Z,71.00
2018-08-09T10:04:45.842Z,68.00
2018-08-09T10:09:49.525Z,66.70
2018-08-09T10:14:53.342Z,65.80
2018-08-09T10:19:57.037Z,63.60
2018-08-09T10:25:00.951Z,62.70
2018-08-09T10:30:05.938Z,61.90
2018-08-09T10:35:09.987Z,61.00
2018-08-09T10:40:13.811Z,61.50
2018-08-09T10:45:17.552Z,59.90
2018-08-09T10:50:21.266Z,58.40
2018-08-09T10:55:25.895Z,56.00
2018-08-09T11:00:29.659Z,55.90
2018-08-09T11:05:33.416Z,55.20
2018-08-09T11:10:37.568Z,53.50
2018-08-09T11:15:41.428Z,52.70
2018-08-09T11:20:45.424Z,51.40
2018-08-09T11:25:49.168Z,50.30
2018-08-09T11:30:53.690Z,46.80
2018-08-09T11:35:57.468Z,44.90
2018-08-09T11:41:01.191Z,43.30
2018-08-09T11:46:04.991Z,42.30
2018-08-09T11:51:08.739Z,40.50
2018-08-09T11:56:12.784Z,38.70
2018-08-09T12:01:16.570Z,36.90
2018-08-09T12:06:20.417Z,35.30
2018-08-09T12:11:25.056Z,31.80
2018-08-09T12:16:28.856Z,33.90
2018-08-09T12:21:32.644Z,34.70
2018-08-09T12:26:36.700Z,33.60
2018-08-09T12:31:40.461Z,31.90
2018-08-09T12:36:44.709Z,28.00
2018-08-09T12:41:48.471Z,26.60
2018-08-09T12:46:52.268Z,23.90
2018-08-09T12:51:56.621Z,23.60
2018-08-09T12:57:01.218Z,22.80
2018-08-09T13:02:05.056Z,23.10
2018-08-09T13:07:08.867Z,25.00
2018-08-09T13:12:12.607Z,24.70
2018-08-09T13:17:16.611Z,26.40
2018-08-09T13:22:20.508Z,27.70
2018-08-09T13:27:24.482Z,27.70
2018-08-09T13:32:28.331Z,26.70
2018-08-09T13:37:32.299Z,25.90
2018-08-09T13:42:36.385Z,26.20
2018-08-09T13:47:40.557Z,25.70
2018-08-09T13:52:44.745Z,24.50
2018-08-09T13:57:48.577Z,23.10
2018-08-09T14:02:52.677Z,23.50
2018-08-09T14:07:56.621Z,25.60
2018-08-09T14:13:00.488Z,27.70
2018-08-09T14:18:04.343Z,29.20
2018-08-09T14:23:08.310Z,31.60
2018-08-09T14:28:12.087Z,33.60
2018-08-09T14:33:15.844Z,35.40
2018-08-09T14:38:19.566Z,36.50
2018-08-09T14:43:23.420Z,37.60
2018-08-09T14:48:27.296Z,38.50
2018-08-09T14:53:30.987Z,39.60
2018-08-09T14:58:34.800Z,67.20
2018-08-09T15:03:38.495Z,83.10
2018-08-09T15:08:42.219Z,90.90
2018-08-09T15:13:45.913Z,91.70
2018-08-09T15:18:49.706Z,92.40
2018-08-09T15:23:53.408Z,92.40
2018-08-09T15:28:57.163Z,93.30
2018-08-09T15:34:00.861Z,93.50
2018-08-09T15:39:08.970Z,94.30
2018-08-09T15:44:13.786Z,94.20
2018-08-09T15:49:17.484Z,94.80
2018-08-09T15:54:21.293Z,94.70
2018-08-09T15:59:25.004Z,95.10
2018-08-09T16:04:28.719Z,94.30
2018-08-09T16:09:32.407Z,94.20
2018-08-09T16:14:36.327Z,93.40
2018-08-09T16:19:40.089Z,92.70
2018-08-09T16:24:43.972Z,93.10
2018-08-09T16:29:47.787Z,92.40
2018-08-09T16:42:16.085Z,79.60
2018-08-09T16:47:19.907Z,66.80
2018-08-09T16:52:23.753Z,63.10
2018-08-09T16:57:27.491Z,65.20
2018-08-09T17:02:31.350Z,66.20
2018-08-09T17:07:35.137Z,67.40
2018-08-09T17:12:39.233Z,66.70
2018-08-09T17:17:43.084Z,65.80
2018-08-09T17:30:12.273Z,69.20
2018-08-09T17:35:17.093Z,73.70
2018-08-09T17:40:22.811Z,73.40
2018-08-09T17:45:29.158Z,73.50
2018-08-09T17:50:32.948Z,75.00
2018-08-09T17:55:36.788Z,75.70
2018-08-09T18:00:40.664Z,75.90
2018-08-09T18:05:45.077Z,76.10
2018-08-09T18:10:48.818Z,76.80
2018-08-09T18:15:52.735Z,76.50
2018-08-09T18:20:56.509Z,75.90
2018-08-09T18:26:00.292Z,74.80
2018-08-09T18:31:04.122Z,73.10
2018-08-09T18:36:08.282Z,72.40
2018-08-09T18:41:12.062Z,70.80
2018-08-09T18:46:15.900Z,70.20
2018-08-09T18:51:20.338Z,70.50
2018-08-09T18:56:24.105Z,69.80
2018-08-09T19:01:27.889Z,70.60
2018-08-09T19:06:31.629Z,70.60
2018-08-09T19:11:35.436Z,70.40
2018-08-09T19:16:39.274Z,71.40
2018-08-09T19:21:43.103Z,71.10
2018-08-09T19:26:46.902Z,71.80
2018-08-09T19:31:50.671Z,70.90
2018-08-09T19:36:54.479Z,71.30
2018-08-09T19:41:58.254Z,71.90
2018-08-09T19:47:02.051Z,72.10
2018-08-09T19:52:05.952Z,72.80
2018-08-09T19:57:09.787Z,72.70
2018-08-09T20:02:13.573Z,73.10
2018-08-09T20:07:17.371Z,73.60
2018-08-09T20:12:21.112Z,73.60
2018-08-09T20:17:24.896Z,73.70
2018-08-09T20:22:29.280Z,73.40
2018-08-09T20:27:33.342Z,73.40
2018-08-09T20:32:37.075Z,73.10
2018-08-09T20:37:41.339Z,72.70
2018-08-09T20:42:45.887Z,72.30
2018-08-09T20:47:49.821Z,72.70
2018-08-09T20:52:53.678Z,73.00
2018-08-09T20:57:57.711Z,72.50
2018-08-09T21:03:02.137Z,70.80
2018-08-09T21:08:06.295Z,69.50
2018-08-09T21:13:10.066Z,70.10
2018-08-09T21:18:13.865Z,69.80
2018-08-09T21:23:17.684Z,70.60
2018-08-09T21:28:21.456Z,71.40
2018-08-09T21:33:25.803Z,70.60
2018-08-09T21:38:29.611Z,70.10
2018-08-09T21:43:33.762Z,69.40
2018-08-09T21:48:37.591Z,68.80
2018-08-09T21:53:41.422Z,68.90
2018-08-09T21:58:45.168Z,68.60
2018-08-09T22:03:48.885Z,68.70
2018-08-09T22:08:57.920Z,69.00
2018-08-09T22:14:06.956Z,68.90
2018-08-09T22:19:16.041Z,68.80
2018-08-09T22:24:19.865Z,69.60
2018-08-09T22:29:23.680Z,69.30
2018-08-09T22:34:27.449Z,69.30
2018-08-09T22:39:31.233Z,69.20
2018-08-09T22:44:35.093Z,68.70
2018-08-09T22:49:38.787Z,68.90
2018-08-09T22:54:42.607Z,68.50
2018-08-09T22:59:46.311Z,68.60
2018-08-09T23:04:50.114Z,68.60
2018-08-09T23:09:53.807Z,69.00
2018-08-09T23:14:57.658Z,69.60
2018-08-09T23:20:01.545Z,70.50
2018-08-09T23:25:10.223Z,68.70
2018-08-09T23:30:14.129Z,67.80
2018-08-09T23:35:17.904Z,68.40
2018-08-09T23:40:21.721Z,70.50
2018-08-09T23:45:25.493Z,71.40
2018-08-09T23:50:29.258Z,72.60
2018-08-09T23:55:33.061Z,73.80
